createdAt,value
2019-04-07T00:01:03.990Z,10.44
2019-04-07T00:02:20.894Z,10.38
2019-04-07T00:03:03.827Z,10.44
2019-04-07T00:05:10.907Z,10.44
2019-04-07T00:07:03.857Z,10.44
2019-04-07T00:09:04.410Z,10.38
2019-04-07T00:11:04.516Z,10.38
2019-04-07T00:13:04.042Z,10.44
2019-04-07T00:15:03.917Z,10.44
2019-04-07T00:17:03.912Z,10.38
2019-04-07T00:17:20.781Z,10.38
2019-04-07T00:19:04.274Z,10.31
2019-04-07T00:21:04.010Z,10.25
2019-04-07T00:23:03.956Z,10.25
2019-04-07T00:25:04.071Z,10.19
2019-04-07T00:27:04.268Z,10.19
2019-04-07T00:29:03.953Z,10.19
2019-04-07T00:31:04.199Z,10.19
2019-04-07T00:32:21.132Z,10.19
2019-04-07T00:33:05.138Z,10.19
2019-04-07T00:35:04.266Z,10.13
2019-04-07T00:37:04.758Z,10.13
2019-04-07T00:39:04.771Z,10.19
2019-04-07T00:41:04.403Z,10.13
2019-04-07T00:43:04.487Z,10.19
2019-04-07T00:45:03.877Z,10.25
2019-04-07T00:47:04.136Z,10.25
2019-04-07T00:47:20.933Z,10.25
2019-04-07T00:49:04.019Z,10.25
2019-04-07T00:51:04.414Z,10.25
2019-04-07T00:53:04.456Z,10.13
2019-04-07T00:55:04.008Z,10.06
2019-04-07T00:57:04.422Z,10
2019-04-07T00:59:04.304Z,9.94
2019-04-07T01:01:04.242Z,9.81
2019-04-07T01:02:21.223Z,9.81
2019-04-07T01:03:04.068Z,9.81
2019-04-07T01:05:04.009Z,9.75
2019-04-07T01:07:05.141Z,9.69
2019-04-07T01:09:04.469Z,9.69
2019-04-07T01:11:04.593Z,9.69
2019-04-07T01:13:04.457Z,9.63
2019-04-07T01:15:04.306Z,9.63
2019-04-07T01:17:03.891Z,9.63
2019-04-07T01:17:21.546Z,9.63
2019-04-07T01:19:04.572Z,9.63
2019-04-07T01:21:04.043Z,9.63
2019-04-07T01:23:03.957Z,9.63
2019-04-07T01:25:03.982Z,9.56
2019-04-07T01:27:04.011Z,9.5
2019-04-07T01:29:04.587Z,9.5
2019-04-07T01:31:04.361Z,9.44
2019-04-07T01:32:21.289Z,9.44
2019-04-07T01:33:03.885Z,9.38
2019-04-07T01:35:03.850Z,9.31
2019-04-07T01:37:04.397Z,9.31
2019-04-07T01:39:04.044Z,9.31
2019-04-07T01:41:04.052Z,9.25
2019-04-07T01:43:04.257Z,9.25
2019-04-07T01:45:03.861Z,9.25
2019-04-07T01:47:04.553Z,9.19
2019-04-07T01:47:20.959Z,9.19
2019-04-07T01:49:03.868Z,9.19
2019-04-07T01:51:04.363Z,9.13
2019-04-07T01:53:04.782Z,9.06
2019-04-07T01:55:03.882Z,9.06
2019-04-07T01:57:04.487Z,9
2019-04-07T01:59:03.918Z,8.88
2019-04-07T02:01:03.932Z,8.81
2019-04-07T02:02:20.875Z,8.81
2019-04-07T02:03:04.254Z,8.75
2019-04-07T02:05:04.424Z,8.69
2019-04-07T02:07:03.977Z,8.56
2019-04-07T02:09:03.872Z,8.5
2019-04-07T02:11:03.874Z,8.44
2019-04-07T02:13:04.330Z,8.5
2019-04-07T02:15:03.893Z,8.44
2019-04-07T02:17:04.304Z,8.44
2019-04-07T02:17:21.051Z,8.44
2019-04-07T02:19:03.951Z,8.38
2019-04-07T02:21:04.328Z,8.44
2019-04-07T02:23:03.878Z,8.5
2019-04-07T02:25:04.309Z,8.44
2019-04-07T02:27:04.010Z,8.38
2019-04-07T02:29:03.939Z,8.38
2019-04-07T02:31:03.932Z,8.5
2019-04-07T02:32:21.444Z,8.56
2019-04-07T02:33:03.916Z,8.56
2019-04-07T02:35:03.829Z,8.69
2019-04-07T02:37:04.608Z,8.75
2019-04-07T02:39:04.580Z,8.75
2019-04-07T02:41:04.277Z,8.75
2019-04-07T02:43:04.990Z,8.75
2019-04-07T02:45:03.894Z,8.75
2019-04-07T02:47:03.934Z,8.75
2019-04-07T02:47:21.267Z,8.75
2019-04-07T02:49:04.873Z,8.75
2019-04-07T02:51:03.924Z,8.75
2019-04-07T02:53:03.927Z,8.69
2019-04-07T02:55:04.476Z,8.69
2019-04-07T02:57:03.925Z,8.75
2019-04-07T02:59:04.635Z,8.75
2019-04-07T03:01:04.088Z,8.75
2019-04-07T03:02:20.887Z,8.75
2019-04-07T03:03:04.777Z,8.69
2019-04-07T03:05:04.925Z,8.69
2019-04-07T03:07:04.788Z,8.69
2019-04-07T03:09:03.827Z,8.69
2019-04-07T03:11:03.811Z,8.63
2019-04-07T03:13:04.844Z,8.63
2019-04-07T03:15:03.929Z,8.63
2019-04-07T03:17:04.166Z,8.63
2019-04-07T03:17:20.876Z,8.63
2019-04-07T03:19:04.470Z,8.69
2019-04-07T03:21:03.858Z,8.63
2019-04-07T03:23:03.875Z,8.56
2019-04-07T03:25:04.118Z,8.5
2019-04-07T03:27:05.716Z,8.44
2019-04-07T03:29:03.945Z,8.44
2019-04-07T03:31:04.079Z,8.38
2019-04-07T03:32:23.833Z,8.44
2019-04-07T03:33:06.533Z,8.44
2019-04-07T03:35:05.571Z,8.44
2019-04-07T03:37:21.117Z,8.44
2019-04-07T03:39:03.927Z,8.5
2019-04-07T03:41:05.355Z,8.44
2019-04-07T03:43:04.915Z,8.44
2019-04-07T03:45:04.305Z,8.38
2019-04-07T03:47:03.836Z,8.44
2019-04-07T03:47:20.882Z,8.44
2019-04-07T03:49:04.044Z,8.38
2019-04-07T03:51:03.921Z,8.38
2019-04-07T03:53:04.677Z,8.38
2019-04-07T03:55:04.736Z,8.25
2019-04-07T03:57:04.700Z,8.25
2019-04-07T03:59:03.844Z,8.25
2019-04-07T04:01:04.805Z,8.19
2019-04-07T04:02:27.916Z,8.19
2019-04-07T04:03:05.168Z,8.19
2019-04-07T04:05:05.150Z,8.13
2019-04-07T04:07:17.667Z,8.13
2019-04-07T04:09:04.062Z,8
2019-04-07T04:11:04.195Z,8.06
2019-04-07T04:13:04.115Z,8
2019-04-07T04:15:03.970Z,8
2019-04-07T04:17:04.217Z,8
2019-04-07T04:17:21.047Z,8
2019-04-07T04:19:04.218Z,8
2019-04-07T04:21:03.871Z,8.06
2019-04-07T04:23:04.033Z,8.06
2019-04-07T04:25:06.777Z,8.06
2019-04-07T04:27:04.570Z,8.06
2019-04-07T04:29:04.044Z,8.06
2019-04-07T04:31:04.636Z,8.06
2019-04-07T04:32:21.923Z,8.13
2019-04-07T04:33:03.997Z,8.06
2019-04-07T04:35:03.903Z,8.13
2019-04-07T04:37:03.993Z,8.13
2019-04-07T04:39:04.775Z,8.19
2019-04-07T04:41:04.816Z,8.19
2019-04-07T04:43:04.676Z,8.19
2019-04-07T04:45:04.223Z,8.19
2019-04-07T04:47:04.783Z,8.19
2019-04-07T04:47:21.649Z,8.19
2019-04-07T04:49:04.222Z,8.25
2019-04-07T04:51:03.942Z,8.25
2019-04-07T04:53:04.113Z,8.25
2019-04-07T04:55:04.030Z,8.31
2019-04-07T04:57:05.290Z,8.31
2019-04-07T04:59:04.137Z,8.31
2019-04-07T05:01:04.501Z,8.25
2019-04-07T05:02:20.963Z,8.25
2019-04-07T05:03:04.562Z,8.19
2019-04-07T05:05:04.013Z,8.19
2019-04-07T05:07:04.179Z,8.13
2019-04-07T05:09:04.534Z,8.13
2019-04-07T05:11:04.365Z,8.13
2019-04-07T05:13:04.521Z,8.06
2019-04-07T05:15:04.122Z,8.13
2019-04-07T05:17:04.074Z,8.06
2019-04-07T05:17:20.980Z,8.06
2019-04-07T05:19:04.445Z,8.06
2019-04-07T05:21:04.267Z,8.19
2019-04-07T05:23:04.108Z,8.25
2019-04-07T05:25:04.042Z,8.38
2019-04-07T05:27:03.893Z,8.38
2019-04-07T05:29:03.875Z,8.44
2019-04-07T05:31:04.403Z,8.5
2019-04-07T05:32:21.195Z,8.56
2019-04-07T05:33:04.588Z,8.5
2019-04-07T05:35:04.347Z,8.38
2019-04-07T05:37:03.830Z,8.44
2019-04-07T05:39:03.824Z,8.38
2019-04-07T05:41:03.896Z,8.5
2019-04-07T05:43:04.632Z,8.44
2019-04-07T05:45:04.047Z,8.38
2019-04-07T05:47:03.875Z,8.31
2019-04-07T05:47:21.269Z,8.31
2019-04-07T05:49:03.951Z,8.31
2019-04-07T05:51:04.378Z,8.25
2019-04-07T05:53:06.727Z,8.19
2019-04-07T05:55:04.460Z,8.19
2019-04-07T05:57:04.317Z,8.13
2019-04-07T05:59:03.927Z,8.13
2019-04-07T06:01:03.898Z,8.13
2019-04-07T06:02:20.970Z,8.19
2019-04-07T06:03:06.460Z,8.13
2019-04-07T06:05:04.141Z,8.13
2019-04-07T06:07:04.476Z,8.19
2019-04-07T06:09:04.055Z,8.25
2019-04-07T06:11:04.181Z,8.25
2019-04-07T06:13:04.106Z,8.31
2019-04-07T06:15:04.213Z,8.31
2019-04-07T06:17:04.806Z,8.44
2019-04-07T06:17:21.157Z,8.44
2019-04-07T06:19:07.375Z,8.5
2019-04-07T06:21:03.970Z,8.56
2019-04-07T06:23:03.981Z,8.69
2019-04-07T06:25:04.272Z,8.75
2019-04-07T06:27:04.374Z,8.81
2019-04-07T06:29:03.946Z,8.88
2019-04-07T06:31:03.867Z,9
2019-04-07T06:32:20.958Z,9.06
2019-04-07T06:33:06.886Z,9.06
2019-04-07T06:35:03.939Z,9.13
2019-04-07T06:37:04.463Z,9.19
2019-04-07T06:39:03.880Z,9.25
2019-04-07T06:41:03.923Z,9.38
2019-04-07T06:43:04.448Z,9.44
2019-04-07T06:45:04.082Z,9.5
2019-04-07T06:47:04.626Z,9.63
2019-04-07T06:47:21.453Z,9.63
2019-04-07T06:49:04.271Z,9.75
2019-04-07T06:51:04.046Z,9.81
2019-04-07T06:53:04.401Z,9.88
2019-04-07T06:55:04.536Z,9.88
2019-04-07T06:57:05.959Z,9.88
2019-04-07T06:59:04.550Z,9.88
2019-04-07T07:01:04.478Z,9.94
2019-04-07T07:02:20.927Z,10
2019-04-07T07:03:04.387Z,10
2019-04-07T07:05:04.024Z,10.06
2019-04-07T07:07:06.150Z,10.13
2019-04-07T07:09:04.963Z,10.19
2019-04-07T07:11:05.737Z,10.25
2019-04-07T07:13:07.912Z,10.31
2019-04-07T07:15:04.541Z,10.31
2019-04-07T07:17:03.882Z,10.44
2019-04-07T07:17:21.504Z,10.44
2019-04-07T07:19:05.191Z,10.5
2019-04-07T07:21:04.007Z,10.5
2019-04-07T07:23:04.934Z,10.5
2019-04-07T07:25:05.196Z,10.56
2019-04-07T07:27:08.254Z,10.63
2019-04-07T07:29:06.271Z,10.69
2019-04-07T07:31:04.335Z,10.75
2019-04-07T07:32:21.551Z,10.75
2019-04-07T07:33:06.715Z,10.75
2019-04-07T07:35:04.155Z,10.75
2019-04-07T07:37:04.049Z,10.88
2019-04-07T07:39:08.493Z,10.94
2019-04-07T07:41:04.722Z,11.06
2019-04-07T07:43:04.351Z,11.06
2019-04-07T07:45:08.045Z,11.06
2019-04-07T07:47:03.894Z,11.19
2019-04-07T07:47:22.572Z,11.19
2019-04-07T07:49:04.977Z,11.31
2019-04-07T07:51:04.077Z,11.31
2019-04-07T07:53:04.610Z,11.44
2019-04-07T07:55:03.917Z,11.5
2019-04-07T07:57:03.869Z,11.63
2019-04-07T07:59:04.377Z,11.63
2019-04-07T08:01:04.286Z,11.63
2019-04-07T08:02:21.740Z,11.69
2019-04-07T08:03:04.605Z,11.75
2019-04-07T08:05:03.911Z,11.81
2019-04-07T08:07:04.319Z,11.88
2019-04-07T08:09:11.095Z,12.06
2019-04-07T08:11:04.515Z,12.06
2019-04-07T08:13:06.028Z,12.13
2019-04-07T08:15:04.825Z,12.06
2019-04-07T08:17:04.972Z,12.13
2019-04-07T08:17:20.844Z,12.13
2019-04-07T08:19:04.006Z,12.13
2019-04-07T08:21:05.526Z,12.25
2019-04-07T08:23:05.347Z,12.44
2019-04-07T08:25:04.092Z,12.44
2019-04-07T08:27:05.161Z,12.56
2019-04-07T08:29:06.679Z,12.56
2019-04-07T08:31:04.409Z,12.63
2019-04-07T08:32:22.106Z,12.69
2019-04-07T08:33:04.992Z,12.69
2019-04-07T08:35:05.363Z,12.81
2019-04-07T08:37:03.870Z,12.88
2019-04-07T08:39:03.879Z,13
2019-04-07T08:41:04.178Z,13
2019-04-07T08:43:03.890Z,13.06
2019-04-07T08:45:04.605Z,13.19
2019-04-07T08:47:03.915Z,13.19
2019-04-07T08:47:22.095Z,13.25
2019-04-07T08:49:03.870Z,13.25
2019-04-07T08:51:04.610Z,13.31
2019-04-07T08:53:04.328Z,13.31
2019-04-07T08:55:05.051Z,13.25
2019-04-07T08:57:04.535Z,13.44
2019-04-07T08:59:03.988Z,13.44
2019-04-07T09:01:09.578Z,13.63
2019-04-07T09:02:22.359Z,13.63
2019-04-07T09:03:06.450Z,13.63
2019-04-07T09:05:04.423Z,13.69
2019-04-07T09:07:05.171Z,13.69
2019-04-07T09:09:07.057Z,13.81
2019-04-07T09:11:04.601Z,13.88
2019-04-07T09:13:07.725Z,13.88
2019-04-07T09:15:05.186Z,13.94
2019-04-07T09:17:04.633Z,14
2019-04-07T09:17:30.579Z,14.06
2019-04-07T09:19:06.785Z,14.06
2019-04-07T09:21:04.577Z,14.06
2019-04-07T09:23:05.482Z,14.25
2019-04-07T09:25:08.128Z,14.25
2019-04-07T09:27:03.823Z,14.25
2019-04-07T09:29:04.027Z,14.25
2019-04-07T09:31:04.502Z,14.31
2019-04-07T09:32:20.995Z,14.38
2019-04-07T09:33:03.927Z,14.38
2019-04-07T09:35:04.755Z,14.31
2019-04-07T09:37:04.448Z,14.44
2019-04-07T09:39:04.046Z,14.5
2019-04-07T09:41:03.981Z,14.56
2019-04-07T09:43:04.161Z,14.5
2019-04-07T09:45:07.317Z,14.63
2019-04-07T09:47:04.273Z,14.88
2019-04-07T09:47:21.387Z,14.88
2019-04-07T09:49:04.541Z,14.75
2019-04-07T09:51:06.867Z,14.88
2019-04-07T09:53:03.909Z,14.81
2019-04-07T09:55:04.470Z,14.88
2019-04-07T09:57:05.982Z,14.88
2019-04-07T09:59:03.951Z,14.94
2019-04-07T10:01:06.155Z,15
2019-04-07T10:02:20.859Z,15
2019-04-07T10:03:06.694Z,15
2019-04-07T10:05:03.880Z,15.06
2019-04-07T10:07:04.511Z,15.19
2019-04-07T10:09:04.102Z,15.13
2019-04-07T10:11:04.187Z,15.19
2019-04-07T10:13:03.935Z,15.31
2019-04-07T10:15:03.916Z,15.31
2019-04-07T10:17:03.948Z,15.38
2019-04-07T10:17:21.046Z,15.38
2019-04-07T10:19:03.877Z,15.38
2019-04-07T10:21:03.883Z,15.44
2019-04-07T10:23:03.910Z,15.63
2019-04-07T10:25:04.398Z,15.56
2019-04-07T10:27:03.832Z,15.56
2019-04-07T10:29:04.553Z,15.63
2019-04-07T10:31:04.706Z,15.5
2019-04-07T10:32:23.060Z,15.56
2019-04-07T10:33:03.932Z,15.56
2019-04-07T10:35:03.882Z,15.63
2019-04-07T10:37:04.911Z,15.56
2019-04-07T10:39:04.256Z,15.69
2019-04-07T10:41:04.474Z,15.81
2019-04-07T10:43:04.141Z,15.88
2019-04-07T10:45:03.868Z,15.81
2019-04-07T10:47:03.933Z,15.81
2019-04-07T10:47:21.171Z,15.81
2019-04-07T10:49:04.425Z,15.81
2019-04-07T10:51:04.447Z,15.94
2019-04-07T10:53:03.912Z,16
2019-04-07T10:55:03.874Z,16.13
2019-04-07T10:57:04.286Z,16
2019-04-07T10:59:04.336Z,16
2019-04-07T11:01:04.126Z,15.94
2019-04-07T11:02:20.880Z,15.94
2019-04-07T11:03:04.213Z,15.94
2019-04-07T11:05:03.953Z,16
2019-04-07T11:07:04.165Z,16
2019-04-07T11:09:04.717Z,16.19
2019-04-07T11:11:05.420Z,16.06
2019-04-07T11:13:03.853Z,16.19
2019-04-07T11:15:04.582Z,16.25
2019-04-07T11:17:04.543Z,16.44
2019-04-07T11:17:21.530Z,16.44
2019-04-07T11:19:04.467Z,16.38
2019-04-07T11:21:05.053Z,16.38
2019-04-07T11:23:03.868Z,16.38
2019-04-07T11:25:03.879Z,16.38
2019-04-07T11:27:03.829Z,16.44
2019-04-07T11:29:04.934Z,16.63
2019-04-07T11:31:03.936Z,16.63
2019-04-07T11:32:20.999Z,16.63
2019-04-07T11:33:03.867Z,16.56
2019-04-07T11:35:03.873Z,16.63
2019-04-07T11:37:05.050Z,16.56
2019-04-07T11:39:05.740Z,17
2019-04-07T11:41:04.291Z,16.94
2019-04-07T11:43:04.400Z,17.06
2019-04-07T11:45:03.889Z,16.81
2019-04-07T11:47:04.697Z,16.81
2019-04-07T11:47:20.822Z,16.94
2019-04-07T11:49:04.941Z,16.88
2019-04-07T11:51:04.043Z,16.81
2019-04-07T11:53:03.975Z,16.88
2019-04-07T11:55:03.957Z,16.94
2019-04-07T11:57:04.419Z,17
2019-04-07T11:59:06.573Z,16.94
2019-04-07T12:01:04.657Z,17
2019-04-07T12:02:21.689Z,17
2019-04-07T12:03:03.995Z,17.06
2019-04-07T12:05:04.349Z,17
2019-04-07T12:07:04.620Z,17.19
2019-04-07T12:09:04.866Z,17.31
2019-04-07T12:11:05.984Z,17.5
2019-04-07T12:13:04.726Z,17.44
2019-04-07T12:15:04.207Z,17.5
2019-04-07T12:17:06.808Z,17.56
2019-04-07T12:17:21.072Z,17.56
2019-04-07T12:19:04.453Z,17.5
2019-04-07T12:21:05.293Z,17.38
2019-04-07T12:23:04.545Z,17.44
2019-04-07T12:25:05.397Z,17.38
2019-04-07T12:27:05.455Z,17.38
2019-04-07T12:29:05.852Z,17.38
2019-04-07T12:31:07.513Z,17.63
2019-04-07T12:32:22.520Z,17.69
2019-04-07T12:33:07.704Z,17.75
2019-04-07T12:35:04.217Z,17.94
2019-04-07T12:37:06.767Z,17.69
2019-04-07T12:39:04.040Z,17.75
2019-04-07T12:41:13.300Z,17.94
2019-04-07T12:43:04.601Z,18
2019-04-07T12:45:04.702Z,17.88
2019-04-07T12:47:04.612Z,17.94
2019-04-07T12:47:20.734Z,17.94
2019-04-07T12:49:06.631Z,18.06
2019-04-07T12:51:03.935Z,18.19
2019-04-07T12:53:05.023Z,18.19
2019-04-07T12:55:04.595Z,18.06
2019-04-07T12:57:05.953Z,18.06
2019-04-07T12:59:04.387Z,18.13
2019-04-07T13:01:10.480Z,18.31
2019-04-07T13:02:21.355Z,18.25
2019-04-07T13:03:04.546Z,18.31
2019-04-07T13:05:05.994Z,18.25
2019-04-07T13:07:03.881Z,18.75
2019-04-07T13:09:03.987Z,18.63
2019-04-07T13:11:06.802Z,18.5
2019-04-07T13:13:04.000Z,18.56
2019-04-07T13:15:03.877Z,18.5
2019-04-07T13:17:04.185Z,18.38
2019-04-07T13:17:21.561Z,18.38
2019-04-07T13:19:04.545Z,18.44
2019-04-07T13:21:04.366Z,18.44
2019-04-07T13:23:04.658Z,18.44
2019-04-07T13:25:04.679Z,18.5
2019-04-07T13:27:05.713Z,18.5
2019-04-07T13:29:04.212Z,18.56
2019-04-07T13:31:04.656Z,18.63
2019-04-07T13:32:21.791Z,18.69
2019-04-07T13:33:04.557Z,18.75
2019-04-07T13:35:03.929Z,18.88
2019-04-07T13:37:04.529Z,18.94
2019-04-07T13:39:04.449Z,19
2019-04-07T13:41:04.092Z,19
2019-04-07T13:43:04.362Z,19.06
2019-04-07T13:45:04.402Z,19.06
2019-04-07T13:47:06.556Z,19.19
2019-04-07T13:47:20.944Z,19.25
2019-04-07T13:49:04.378Z,19.31
2019-04-07T13:51:04.240Z,19.19
2019-04-07T13:53:03.877Z,19.25
2019-04-07T13:55:05.050Z,19.25
2019-04-07T13:57:04.457Z,19.25
2019-04-07T13:59:07.507Z,19.31
2019-04-07T14:01:03.933Z,19.31
2019-04-07T14:02:24.747Z,19.31
2019-04-07T14:03:04.765Z,19.31
2019-04-07T14:05:07.530Z,19.5
2019-04-07T14:07:03.951Z,19.25
2019-04-07T14:09:04.304Z,19
2019-04-07T14:11:04.333Z,19.06
2019-04-07T14:13:06.058Z,18.94
2019-04-07T14:15:04.066Z,18.75
2019-04-07T14:17:03.959Z,18.63
2019-04-07T14:17:20.847Z,18.69
2019-04-07T14:19:04.058Z,18.75
2019-04-07T14:21:04.054Z,19.19
2019-04-07T14:23:04.301Z,19.75
2019-04-07T14:25:04.065Z,20.13
2019-04-07T14:27:04.355Z,20.63
2019-04-07T14:29:04.110Z,20.75
2019-04-07T14:31:04.365Z,21
2019-04-07T14:32:20.969Z,21.25
2019-04-07T14:33:04.557Z,21.25
2019-04-07T14:35:04.253Z,21.13
2019-04-07T14:37:04.235Z,21.25
2019-04-07T14:39:04.153Z,21.13
2019-04-07T14:41:03.934Z,21.38
2019-04-07T14:43:04.568Z,21.63
2019-04-07T14:45:04.553Z,21.88
2019-04-07T14:47:03.861Z,22.06
2019-04-07T14:47:21.637Z,22.19
2019-04-07T14:49:04.389Z,22.31
2019-04-07T14:51:04.734Z,22.56
2019-04-07T14:53:03.902Z,22.31
2019-04-07T14:55:04.841Z,23.06
2019-04-07T14:57:07.288Z,22.75
2019-04-07T14:59:04.096Z,23
2019-04-07T15:01:06.532Z,23.19
2019-04-07T15:02:21.527Z,23.06
2019-04-07T15:03:05.171Z,23.13
2019-04-07T15:05:06.063Z,23.25
2019-04-07T15:07:06.289Z,23.44
2019-04-07T15:09:05.057Z,23.5
2019-04-07T15:11:04.640Z,23.69
2019-04-07T15:13:03.921Z,23.81
2019-04-07T15:15:06.882Z,23.75
2019-04-07T15:17:04.657Z,23.38
2019-04-07T15:17:21.017Z,23.44
2019-04-07T15:19:04.264Z,23.69
2019-04-07T15:21:05.673Z,23.69
2019-04-07T15:23:04.379Z,23.5
2019-04-07T15:25:07.137Z,23.63
2019-04-07T15:27:05.789Z,23.31
2019-04-07T15:29:06.391Z,23.25
2019-04-07T15:31:04.238Z,23.56
2019-04-07T15:32:23.455Z,23.56
2019-04-07T15:33:04.162Z,23.63
2019-04-07T15:35:04.265Z,23.56
2019-04-07T15:37:04.241Z,23.63
2019-04-07T15:39:03.882Z,23.19
2019-04-07T15:41:06.903Z,22.81
2019-04-07T15:43:05.500Z,23.25
2019-04-07T15:45:04.843Z,23.5
2019-04-07T15:47:03.932Z,23.75
2019-04-07T15:47:21.937Z,23.69
2019-04-07T15:49:06.382Z,23.81
2019-04-07T15:51:04.991Z,24
2019-04-07T15:53:04.005Z,24
2019-04-07T15:55:03.843Z,23.88
2019-04-07T15:57:03.960Z,23.81
2019-04-07T15:59:03.936Z,23.88
2019-04-07T16:01:06.469Z,23.63
2019-04-07T16:02:20.845Z,23.69
2019-04-07T16:03:04.282Z,23.81
2019-04-07T16:05:03.835Z,23.44
2019-04-07T16:07:03.821Z,23.81
2019-04-07T16:09:04.269Z,23.88
2019-04-07T16:11:04.656Z,23.94
2019-04-07T16:13:04.642Z,23.44
2019-04-07T16:15:04.146Z,23.94
2019-04-07T16:17:05.443Z,23.88
2019-04-07T16:17:21.124Z,23.81
2019-04-07T16:19:03.816Z,23.69
2019-04-07T16:21:05.704Z,23.63
2019-04-07T16:23:05.184Z,23.56
2019-04-07T16:25:03.932Z,23.5
2019-04-07T16:27:06.566Z,23.19
2019-04-07T16:29:03.882Z,23.38
2019-04-07T16:31:06.146Z,23.31
2019-04-07T16:32:20.840Z,23.25
2019-04-07T16:33:05.210Z,23.13
2019-04-07T16:35:03.993Z,22.88
2019-04-07T16:37:04.669Z,22.81
2019-04-07T16:39:04.331Z,22.81
2019-04-07T16:41:06.413Z,22.69
2019-04-07T16:43:10.691Z,22.63
2019-04-07T16:45:03.948Z,22.56
2019-04-07T16:47:04.152Z,22.88
2019-04-07T16:47:23.645Z,22.94
2019-04-07T16:49:04.520Z,22.88
2019-04-07T16:51:03.927Z,22.88
2019-04-07T16:53:06.477Z,22.56
2019-04-07T16:55:04.260Z,22.25
2019-04-07T16:57:03.874Z,22.25
2019-04-07T16:59:04.207Z,21.94
2019-04-07T17:01:04.606Z,21.94
2019-04-07T17:02:20.937Z,22
2019-04-07T17:03:04.433Z,22
2019-04-07T17:05:05.754Z,22.06
2019-04-07T17:07:08.707Z,22
2019-04-07T17:09:04.351Z,22.06
2019-04-07T17:11:07.123Z,22
2019-04-07T17:13:14.480Z,22.06
2019-04-07T17:15:04.915Z,21.94
2019-04-07T17:17:04.668Z,21.88
2019-04-07T17:17:22.641Z,21.88
2019-04-07T17:19:04.084Z,21.81
2019-04-07T17:21:06.323Z,21.63
2019-04-07T17:23:03.914Z,21.5
2019-04-07T17:25:07.852Z,21.44
2019-04-07T17:27:04.556Z,21.13
2019-04-07T17:29:04.360Z,20.81
2019-04-07T17:31:04.653Z,20.5
2019-04-07T17:32:20.836Z,20.56
2019-04-07T17:33:05.101Z,20.56
2019-04-07T17:35:03.834Z,20.31
2019-04-07T17:37:04.075Z,20.19
2019-04-07T17:39:05.914Z,20.13
2019-04-07T17:41:05.026Z,20
2019-04-07T17:43:04.006Z,19.81
2019-04-07T17:45:04.074Z,19.63
2019-04-07T17:47:04.170Z,19.5
2019-04-07T17:47:20.813Z,19.5
2019-04-07T17:49:04.496Z,19.5
2019-04-07T17:51:07.023Z,19.38
2019-04-07T17:53:04.167Z,19.25
2019-04-07T17:55:04.231Z,19.19
2019-04-07T17:57:05.502Z,19.13
2019-04-07T17:59:04.545Z,19
2019-04-07T18:01:04.172Z,19
2019-04-07T18:02:22.763Z,18.94
2019-04-07T18:03:07.380Z,18.88
2019-04-07T18:05:04.274Z,18.81
2019-04-07T18:07:05.833Z,18.75
2019-04-07T18:09:08.888Z,18.69
2019-04-07T18:11:04.325Z,18.56
2019-04-07T18:13:04.084Z,18.44
2019-04-07T18:15:07.197Z,18.38
2019-04-07T18:17:04.455Z,18.31
2019-04-07T18:17:21.485Z,18.31
2019-04-07T18:19:03.953Z,18.25
2019-04-07T18:21:05.970Z,18.19
2019-04-07T18:23:04.393Z,18.19
2019-04-07T18:25:05.110Z,18.13
2019-04-07T18:27:03.998Z,18.06
2019-04-07T18:29:03.918Z,18.06
2019-04-07T18:31:05.269Z,18.06
2019-04-07T18:32:21.650Z,18
2019-04-07T18:33:04.327Z,18
2019-04-07T18:35:04.425Z,17.94
2019-04-07T18:37:06.068Z,17.88
2019-04-07T18:39:04.453Z,17.88
2019-04-07T18:41:09.305Z,17.81
2019-04-07T18:43:04.255Z,17.88
2019-04-07T18:45:05.221Z,17.69
2019-04-07T18:47:04.724Z,17.56
2019-04-07T18:47:22.637Z,17.56
2019-04-07T18:49:05.048Z,17.56
2019-04-07T18:51:04.923Z,17.56
2019-04-07T18:53:03.933Z,17.5
2019-04-07T18:55:06.689Z,17.5
2019-04-07T18:57:04.039Z,17.5
2019-04-07T18:59:04.289Z,17.31
2019-04-07T19:01:06.492Z,17.31
2019-04-07T19:02:20.973Z,17.31
2019-04-07T19:03:04.487Z,17.31
2019-04-07T19:05:05.116Z,17.13
2019-04-07T19:07:04.223Z,17.06
2019-04-07T19:09:04.799Z,17.06
2019-04-07T19:11:11.207Z,17.06
2019-04-07T19:13:09.660Z,17.13
2019-04-07T19:15:07.832Z,17.06
2019-04-07T19:17:04.219Z,17.06
2019-04-07T19:17:23.361Z,17.06
2019-04-07T19:19:04.873Z,17.06
2019-04-07T19:21:03.915Z,17
2019-04-07T19:23:04.384Z,16.94
2019-04-07T19:25:07.173Z,16.81
2019-04-07T19:27:12.496Z,16.69
2019-04-07T19:29:07.364Z,16.56
2019-04-07T19:31:04.421Z,16.56
2019-04-07T19:32:22.316Z,16.56
2019-04-07T19:33:04.471Z,16.5
2019-04-07T19:35:04.511Z,16.44
2019-04-07T19:37:03.977Z,16.38
2019-04-07T19:39:04.752Z,16.38
2019-04-07T19:41:04.654Z,16.31
2019-04-07T19:43:03.898Z,16.44
2019-04-07T19:45:05.671Z,16.44
2019-04-07T19:47:04.437Z,16.44
2019-04-07T19:47:20.904Z,16.44
2019-04-07T19:49:03.824Z,16.44
2019-04-07T19:51:03.883Z,16.44
2019-04-07T19:53:06.861Z,16.5
2019-04-07T19:55:03.990Z,16.63
2019-04-07T19:57:04.711Z,16.69
2019-04-07T19:59:04.922Z,16.69
2019-04-07T20:01:03.855Z,16.75
2019-04-07T20:02:21.002Z,16.75
2019-04-07T20:03:09.513Z,16.69
2019-04-07T20:05:04.204Z,16.75
2019-04-07T20:07:04.830Z,16.63
2019-04-07T20:09:06.661Z,16.56
2019-04-07T20:11:03.919Z,16.63
2019-04-07T20:13:05.404Z,16.63
2019-04-07T20:15:08.962Z,16.63
2019-04-07T20:17:04.161Z,16.63
2019-04-07T20:17:23.794Z,16.56
2019-04-07T20:19:04.444Z,16.5
2019-04-07T20:21:04.042Z,15.81
2019-04-07T20:23:04.363Z,15.56
2019-04-07T20:25:08.594Z,15.38
2019-04-07T20:27:03.866Z,15.25
2019-04-07T20:29:06.897Z,15.06
2019-04-07T20:31:05.268Z,15
2019-04-07T20:32:24.692Z,15
2019-04-07T20:33:04.196Z,14.94
2019-04-07T20:35:03.916Z,14.81
2019-04-07T20:37:03.920Z,14.69
2019-04-07T20:39:04.002Z,14.63
2019-04-07T20:41:04.095Z,14.56
2019-04-07T20:43:04.616Z,14.44
2019-04-07T20:45:06.893Z,14.44
2019-04-07T20:47:04.587Z,14.38
2019-04-07T20:47:20.959Z,14.38
2019-04-07T20:49:05.591Z,14.31
2019-04-07T20:51:04.636Z,14.25
2019-04-07T20:53:12.343Z,14.13
2019-04-07T20:55:06.024Z,14.13
2019-04-07T20:57:04.920Z,14
2019-04-07T20:59:06.991Z,13.94
2019-04-07T21:01:04.823Z,13.81
2019-04-07T21:02:23.170Z,13.75
2019-04-07T21:03:14.990Z,13.69
2019-04-07T21:05:04.808Z,13.69
2019-04-07T21:07:03.985Z,13.63
2019-04-07T21:09:03.908Z,13.63
2019-04-07T21:11:06.331Z,13.56
2019-04-07T21:13:03.901Z,13.44
2019-04-07T21:15:16.009Z,13.38
2019-04-07T21:17:03.987Z,13.31
2019-04-07T21:17:21.687Z,13.38
2019-04-07T21:19:07.727Z,13.31
2019-04-07T21:21:04.564Z,13.25
2019-04-07T21:23:04.021Z,13.19
2019-04-07T21:25:04.035Z,13.13
2019-04-07T21:27:03.923Z,13
2019-04-07T21:29:07.290Z,13.06
2019-04-07T21:31:03.951Z,13.06
2019-04-07T21:32:21.572Z,12.94
2019-04-07T21:33:04.510Z,12.88
2019-04-07T21:35:05.016Z,12.94
2019-04-07T21:37:04.706Z,12.88
2019-04-07T21:39:04.570Z,12.88
2019-04-07T21:41:04.028Z,12.81
2019-04-07T21:43:04.692Z,12.75
2019-04-07T21:45:04.671Z,12.75
2019-04-07T21:47:04.329Z,12.69
2019-04-07T21:47:23.462Z,12.69
2019-04-07T21:49:04.074Z,12.69
2019-04-07T21:51:04.427Z,12.69
2019-04-07T21:53:04.509Z,12.56
2019-04-07T21:55:05.938Z,12.56
2019-04-07T21:57:05.809Z,12.56
2019-04-07T21:59:04.313Z,12.44
2019-04-07T22:01:05.780Z,12.44
2019-04-07T22:02:21.604Z,12.38
2019-04-07T22:03:03.934Z,12.38
2019-04-07T22:05:04.209Z,12.38
2019-04-07T22:07:04.764Z,12.31
2019-04-07T22:09:04.684Z,12.31
2019-04-07T22:11:04.833Z,12.31
2019-04-07T22:13:05.386Z,12.25
2019-04-07T22:15:04.403Z,12.25
2019-04-07T22:17:04.215Z,12.19
2019-04-07T22:17:21.301Z,12.19
2019-04-07T22:19:04.203Z,12.19
2019-04-07T22:21:03.990Z,12.13
2019-04-07T22:23:05.300Z,12.13
2019-04-07T22:25:06.998Z,12.06
2019-04-07T22:27:05.329Z,12.06
2019-04-07T22:29:05.229Z,12
2019-04-07T22:31:03.891Z,12
2019-04-07T22:32:22.180Z,12
2019-04-07T22:33:04.220Z,12
2019-04-07T22:35:06.419Z,12
2019-04-07T22:37:04.735Z,11.94
2019-04-07T22:39:04.532Z,11.88
2019-04-07T22:41:06.686Z,11.81
2019-04-07T22:43:03.861Z,11.81
2019-04-07T22:45:04.025Z,11.75
2019-04-07T22:47:04.089Z,11.75
2019-04-07T22:47:22.001Z,11.75
2019-04-07T22:49:04.171Z,11.69
2019-04-07T22:51:09.372Z,11.63
2019-04-07T22:53:03.893Z,11.63
2019-04-07T22:55:05.898Z,11.56
2019-04-07T22:57:06.044Z,11.56
2019-04-07T22:59:03.873Z,11.5
2019-04-07T23:01:04.627Z,11.5
2019-04-07T23:02:21.923Z,11.5
2019-04-07T23:03:03.932Z,11.44
2019-04-07T23:05:03.877Z,11.44
2019-04-07T23:07:04.097Z,11.38